Time;durP1;ratioP1;P1;durP2;ratioP2;P2;SDS_P1;SDS_P2;PMS_P1;PMS_P2;Temp;Humidity;BMP_temperature;BMP_pressure;BME280_temperature;BME280_humidity;BME280_pressure;Samples;Min_cycle;Max_cycle;Signal;HPM_P1;HPM_P2
2022/09/28 00:02:06;;;;;;;7.37;5.37;;;9.60;99.90;;;;;;5075753;28;20059;-66
2022/09/28 00:04:33;;;;;;;9.73;5.10;;;9.50;99.90;;;;;;5075993;28;20056;-66
2022/09/28 00:06:59;;;;;;;11.03;5.70;;;9.50;99.90;;;;;;5075746;28;20087;-66
2022/09/28 00:09:25;;;;;;;7.50;5.47;;;9.40;99.90;;;;;;5075878;28;20738;-66
2022/09/28 00:11:52;;;;;;;10.27;5.30;;;9.50;99.90;;;;;;5075548;28;20282;-67
2022/09/28 00:14:19;;;;;;;9.60;6.30;;;9.40;99.90;;;;;;5076139;28;20350;-66
2022/09/28 00:16:44;;;;;;;10.43;6.20;;;9.40;99.90;;;;;;5075504;28;20639;-66
2022/09/28 00:19:12;;;;;;;9.43;5.90;;;9.40;99.90;;;;;;5075417;28;20291;-66
2022/09/28 00:21:39;;;;;;;9.27;5.90;;;9.40;99.90;;;;;;5075837;28;20484;-66
2022/09/28 00:24:17;;;;;;;10.77;6.00;;;9.40;99.90;;;;;;5075475;28;20649;-66
2022/09/28 00:26:48;;;;;;;10.57;7.17;;;9.40;99.90;;;;;;5075691;28;20352;-66
2022/09/28 00:29:18;;;;;;;8.70;6.60;;;9.40;99.90;;;;;;5075971;28;20291;-66
2022/09/28 00:31:44;;;;;;;9.90;5.90;;;9.30;99.90;;;;;;5058016;28;20289;-66
2022/09/28 00:34:10;;;;;;;9.20;6.47;;;9.30;99.90;;;;;;5075176;28;20370;-66
2022/09/28 00:36:36;;;;;;;8.03;5.57;;;9.30;99.90;;;;;;5057820;28;20071;-66
2022/09/28 00:39:07;;;;;;;8.70;5.63;;;9.30;99.90;;;;;;5075171;28;20291;-66
2022/09/28 00:41:34;;;;;;;9.73;5.93;;;9.30;99.90;;;;;;5075448;28;20156;-66
2022/09/28 00:44:21;;;;;;;9.07;5.57;;;9.20;99.90;;;;;;5075190;28;20370;-67
2022/09/28 00:46:49;;;;;;;8.27;5.97;;;9.30;99.90;;;;;;5075351;28;20345;-66
2022/09/28 00:49:18;;;;;;;7.03;5.37;;;9.20;99.90;;;;;;5057109;28;20386;-66
2022/09/28 00:51:46;;;;;;;8.13;5.87;;;9.30;99.90;;;;;;5057578;28;20596;-66
2022/09/28 00:54:14;;;;;;;9.87;6.10;;;9.30;99.90;;;;;;5074863;28;20282;-66
2022/09/28 00:56:44;;;;;;;7.87;5.70;;;9.30;99.90;;;;;;5075144;28;20275;-66
2022/09/28 00:59:10;;;;;;;8.63;6.03;;;9.20;99.90;;;;;;5074745;28;20291;-66
2022/09/28 01:01:36;;;;;;;8.27;5.50;;;9.20;99.90;;;;;;5075213;28;20282;-66
2022/09/28 01:04:03;;;;;;;8.47;6.40;;;9.20;99.90;;;;;;5074517;28;20056;-67
2022/09/28 01:06:32;;;;;;;12.40;6.30;;;9.20;99.90;;;;;;5074966;28;20290;-66
2022/09/28 01:09:01;;;;;;;7.97;5.83;;;9.20;99.90;;;;;;5074688;28;20275;-67
2022/09/28 01:11:30;;;;;;;9.07;6.23;;;9.20;99.90;;;;;;5074924;28;20286;-66
2022/09/28 01:13:57;;;;;;;10.10;6.10;;;9.20;99.90;;;;;;5074469;28;20278;-67
2022/09/28 01:16:38;;;;;;;8.50;5.10;;;9.20;99.90;;;;;;5056789;28;20298;-66
2022/09/28 01:19:09;;;;;;;9.43;6.40;;;9.20;99.90;;;;;;5056633;28;20344;-67
2022/09/28 01:21:50;;;;;;;6.90;5.20;;;9.10;99.90;;;;;;5074753;28;20298;-66
2022/09/28 01:24:25;;;;;;;8.57;6.30;;;9.10;99.90;;;;;;5074412;28;20271;-67
2022/09/28 01:27:09;;;;;;;7.43;5.25;;;9.20;99.90;;;;;;5074602;28;20326;-66
2022/09/28 01:29:46;;;;;;;9.43;5.80;;;9.10;99.90;;;;;;5074532;28;20052;-66
2022/09/28 01:32:34;;;;;;;8.80;6.43;;;9.10;99.90;;;;;;5073928;28;20751;-67
2022/09/28 01:35:13;;;;;;;8.53;6.67;;;9.10;99.90;;;;;;5056394;28;20336;-67
2022/09/28 01:37:52;;;;;;;12.23;6.33;;;9.10;99.90;;;;;;5073982;28;20434;-67
2022/09/28 01:40:22;;;;;;;9.10;7.10;;;9.00;99.90;;;;;;5073879;28;20302;-67
2022/09/28 01:42:53;;;;;;;8.67;6.50;;;9.00;99.90;;;;;;5073983;28;20778;-67
2022/09/28 01:45:29;;;;;;;9.93;6.87;;;9.00;99.90;;;;;;5073877;28;20315;-67
2022/09/28 01:48:00;;;;;;;8.53;6.83;;;9.00;99.90;;;;;;5074293;28;20278;-66
2022/09/28 01:50:29;;;;;;;10.80;6.47;;;8.90;99.90;;;;;;5056776;28;20634;-66
2022/09/28 01:53:34;;;;;;;10.70;7.33;;;8.90;99.90;;;;;;5073935;28;20335;-66
2022/09/28 01:56:22;;;;;;;11.83;6.90;;;8.90;99.90;;;;;;5068247;28;20294;-67
2022/09/28 01:59:02;;;;;;;10.20;6.90;;;8.90;99.90;;;;;;5072932;28;20322;-66
2022/09/28 02:01:41;;;;;;;10.67;7.50;;;8.90;99.90;;;;;;5074035;28;20292;-66
2022/09/28 02:04:13;;;;;;;11.63;7.13;;;8.90;99.90;;;;;;5073557;28;20277;-66
2022/09/28 02:06:46;;;;;;;9.00;6.97;;;8.90;99.90;;;;;;5056289;28;20291;-66
2022/09/28 02:09:20;;;;;;;8.90;6.60;;;8.90;99.90;;;;;;5073468;28;20615;-66
2022/09/28 02:11:52;;;;;;;9.23;7.17;;;8.90;99.90;;;;;;5074039;28;20742;-66
2022/09/28 02:14:19;;;;;;;11.87;7.03;;;8.90;99.90;;;;;;5072751;28;20267;-66
2022/09/28 02:16:48;;;;;;;12.30;7.50;;;8.90;99.90;;;;;;5073605;28;20433;-66
2022/09/28 02:19:17;;;;;;;9.67;7.03;;;8.90;99.90;;;;;;5072985;28;20381;-66
2022/09/28 02:22:06;;;;;;;10.50;6.97;;;8.90;99.90;;;;;;5055935;28;20313;-66
2022/09/28 02:24:39;;;;;;;9.37;7.30;;;8.90;99.90;;;;;;5073284;28;20684;-66
2022/09/28 02:27:15;;;;;;;10.70;7.43;;;8.90;99.90;;;;;;5072930;28;20758;-66
2022/09/28 02:29:41;;;;;;;10.33;7.43;;;8.90;99.90;;;;;;5073620;28;20287;-66
2022/09/28 02:32:07;;;;;;;10.20;7.43;;;8.90;99.90;;;;;;5072994;28;20279;-66
2022/09/28 02:34:34;;;;;;;11.23;7.60;;;8.90;99.90;;;;;;5055366;28;20048;-66
2022/09/28 02:37:01;;;;;;;10.27;7.57;;;8.90;99.90;;;;;;5073137;28;20044;-66
2022/09/28 02:39:27;;;;;;;8.87;7.20;;;8.90;99.90;;;;;;5072897;28;20294;-66
2022/09/28 02:42:11;;;;;;;9.37;7.47;;;8.80;99.90;;;;;;5073043;28;20289;-66
2022/09/28 02:45:07;;;;;;;10.23;7.90;;;8.90;99.90;;;;;;5055389;28;20075;-66
2022/09/28 02:47:58;;;;;;;11.77;7.63;;;8.90;99.90;;;;;;5073090;28;20279;-66
2022/09/28 02:51:02;;;;;;;9.57;7.77;;;8.90;99.90;;;;;;5072179;28;20291;-66
2022/09/28 02:54:09;;;;;;;8.83;7.63;;;8.90;99.90;;;;;;5050591;28;20295;-66
2022/09/28 02:56:43;;;;;;;9.87;7.20;;;8.90;99.90;;;;;;4971944;28;20305;-66
2022/09/28 02:59:25;;;;;;;11.82;7.53;;;8.90;99.90;;;;;;4971644;28;20542;-66
2022/09/28 03:02:27;;;;;;;10.07;7.30;;;8.90;99.90;;;;;;5035252;28;20155;-66
2022/09/28 03:05:02;;;;;;;9.57;7.70;;;8.90;99.90;;;;;;5072944;28;20283;-66
2022/09/28 03:07:39;;;;;;;9.73;7.45;;;8.90;99.90;;;;;;5072589;28;20676;-66
2022/09/28 03:10:22;;;;;;;8.97;7.67;;;8.90;99.90;;;;;;5072957;28;20052;-66
2022/09/28 03:12:50;;;;;;;10.33;7.50;;;9.00;99.90;;;;;;5055187;28;20297;-66
2022/09/28 03:15:26;;;;;;;10.10;7.80;;;8.90;99.90;;;;;;5072308;28;20326;-66
2022/09/28 03:17:52;;;;;;;9.43;7.57;;;8.90;99.90;;;;;;5072769;28;20344;-65
2022/09/28 03:20:18;;;;;;;10.93;7.17;;;8.90;99.90;;;;;;5072370;28;20295;-66
2022/09/28 03:22:44;;;;;;;9.17;7.87;;;8.90;99.90;;;;;;5072770;28;20128;-66
2022/09/28 03:25:10;;;;;;;12.33;7.93;;;8.90;99.90;;;;;;5072459;28;20053;-67
2022/09/28 03:27:36;;;;;;;9.93;7.33;;;9.00;99.90;;;;;;5057620;28;20090;-66
2022/09/28 03:30:03;;;;;;;10.07;7.97;;;9.00;99.90;;;;;;5076772;28;20315;-66
2022/09/28 03:32:28;;;;;;;9.10;7.67;;;9.00;99.90;;;;;;5076413;28;20866;-66
2022/09/28 03:34:54;;;;;;;8.83;7.20;;;9.00;99.90;;;;;;5076826;28;20400;-66
2022/09/28 03:37:20;;;;;;;8.67;7.77;;;9.00;99.90;;;;;;5076339;28;20045;-66
2022/09/28 03:39:46;;;;;;;9.47;8.13;;;9.00;99.90;;;;;;5076490;28;20290;-66
2022/09/28 03:42:11;;;;;;;9.87;8.27;;;9.00;99.90;;;;;;5076532;28;20114;-66
2022/09/28 03:44:37;;;;;;;9.93;7.40;;;9.10;99.90;;;;;;5076522;28;20128;-66
2022/09/28 03:47:03;;;;;;;10.10;7.93;;;9.10;99.90;;;;;;5076463;28;20056;-66
2022/09/28 03:49:28;;;;;;;10.80;8.47;;;9.00;99.90;;;;;;5058320;28;20043;-67
2022/09/28 03:51:54;;;;;;;9.87;8.23;;;9.10;99.90;;;;;;5058536;28;20044;-67
2022/09/28 03:54:20;;;;;;;10.27;8.23;;;9.10;99.90;;;;;;5076026;28;20044;-67
2022/09/28 03:56:45;;;;;;;9.77;8.50;;;9.10;99.90;;;;;;5076288;28;20044;-67
2022/09/28 03:59:11;;;;;;;11.07;8.77;;;9.10;99.90;;;;;;5076112;28;20127;-67
2022/09/28 04:01:37;;;;;;;10.10;8.17;;;9.10;99.90;;;;;;5075959;28;20040;-66
2022/09/28 04:04:02;;;;;;;11.53;8.70;;;9.10;99.90;;;;;;5058516;28;20044;-67
2022/09/28 04:06:28;;;;;;;10.73;9.10;;;9.10;99.90;;;;;;5058047;28;20045;-67
2022/09/28 04:08:54;;;;;;;9.93;8.80;;;9.10;99.90;;;;;;5076028;28;20572;-66
2022/09/28 04:11:20;;;;;;;11.30;8.60;;;9.10;99.90;;;;;;5075687;28;20048;-67
2022/09/28 04:13:49;;;;;;;9.87;8.57;;;9.10;99.90;;;;;;5058622;28;20146;-67
2022/09/28 04:16:16;;;;;;;10.20;8.70;;;9.10;99.90;;;;;;5075563;28;20056;-69
2022/09/28 04:18:42;;;;;;;13.83;9.87;;;9.20;99.90;;;;;;5075728;28;20285;-67
2022/09/28 04:21:14;;;;;;;12.07;9.73;;;9.10;99.90;;;;;;5075775;28;20282;-66
2022/09/28 04:23:41;;;;;;;11.50;9.47;;;9.20;99.90;;;;;;5076126;28;20266;-66
2022/09/28 04:26:17;;;;;;;12.13;9.97;;;9.20;99.90;;;;;;5075722;28;20271;-66
2022/09/28 04:31:29;;;;;;;13.20;10.38;;;9.20;99.90;;;;;;5057817;28;20649;-66
2022/09/28 04:33:57;;;;;;;12.00;9.13;;;9.20;99.90;;;;;;5075882;28;20127;-66
2022/09/28 04:36:26;;;;;;;12.30;10.30;;;9.20;99.90;;;;;;5057514;28;20060;-66
2022/09/28 04:38:52;;;;;;;14.43;10.50;;;9.20;99.90;;;;;;5057394;28;20286;-66
2022/09/28 04:41:17;;;;;;;13.87;10.77;;;9.20;99.90;;;;;;5075010;28;20325;-68
2022/09/28 04:43:45;;;;;;;12.83;10.40;;;9.20;99.90;;;;;;5075408;28;20052;-66
2022/09/28 04:46:11;;;;;;;12.17;10.10;;;9.20;99.90;;;;;;5057456;28;20063;-66
2022/09/28 04:48:37;;;;;;;13.00;10.50;;;9.20;99.90;;;;;;5057276;28;21131;-66
2022/09/28 04:51:03;;;;;;;13.70;9.70;;;9.20;99.90;;;;;;5075247;28;20048;-66
2022/09/28 04:53:29;;;;;;;12.90;10.20;;;9.20;99.90;;;;;;5057329;28;20049;-66
2022/09/28 04:56:03;;;;;;;13.43;9.63;;;9.20;99.90;;;;;;5075126;28;20840;-66
2022/09/28 04:58:30;;;;;;;11.30;9.63;;;9.20;99.90;;;;;;5057282;28;20289;-66
2022/09/28 05:01:05;;;;;;;14.33;10.03;;;9.20;99.90;;;;;;5074950;28;20048;-66
2022/09/28 05:03:31;;;;;;;14.20;10.40;;;9.20;99.90;;;;;;5074559;28;20362;-66
2022/09/28 05:05:57;;;;;;;10.80;9.53;;;9.20;99.90;;;;;;5057156;28;20286;-66
2022/09/28 05:08:23;;;;;;;14.33;10.43;;;9.20;99.90;;;;;;5074619;28;20275;-66
2022/09/28 05:10:57;;;;;;;12.97;10.47;;;9.10;99.90;;;;;;5074693;28;20424;-66
2022/09/28 05:13:23;;;;;;;13.00;10.40;;;9.20;99.90;;;;;;5074608;28;20044;-66
2022/09/28 05:15:55;;;;;;;14.50;10.03;;;9.20;99.90;;;;;;5074276;28;20371;-66
2022/09/28 05:18:21;;;;;;;15.53;11.00;;;9.20;99.90;;;;;;5074697;28;20473;-68
2022/09/28 05:20:47;;;;;;;12.23;9.87;;;9.20;99.90;;;;;;5074509;28;20338;-66
2022/09/28 05:23:14;;;;;;;13.23;10.60;;;9.10;99.90;;;;;;5074473;28;20318;-66
2022/09/28 05:25:41;;;;;;;14.43;10.60;;;9.10;99.90;;;;;;5074245;28;20511;-66
2022/09/28 05:28:07;;;;;;;13.80;9.83;;;9.10;99.90;;;;;;5074378;28;20755;-66
2022/09/28 05:30:34;;;;;;;14.00;11.03;;;9.00;99.90;;;;;;5074039;28;20297;-66
2022/09/28 05:33:00;;;;;;;13.50;10.00;;;9.10;99.90;;;;;;5074346;28;20362;-66
2022/09/28 05:35:26;;;;;;;13.43;10.47;;;9.00;99.90;;;;;;5074000;28;20283;-66
2022/09/28 05:37:53;;;;;;;13.87;10.20;;;9.00;99.90;;;;;;5056388;28;20286;-66
2022/09/28 05:40:18;;;;;;;14.20;9.87;;;8.90;99.90;;;;;;5074093;28;20040;-66
2022/09/28 05:42:44;;;;;;;12.10;10.03;;;8.90;99.90;;;;;;5073824;28;20287;-66
2022/09/28 05:45:10;;;;;;;14.23;10.00;;;8.90;99.90;;;;;;5074099;28;20052;-66
2022/09/28 05:47:44;;;;;;;13.40;9.60;;;8.90;99.90;;;;;;5073779;28;20131;-66
2022/09/28 05:50:11;;;;;;;12.07;9.30;;;8.90;99.90;;;;;;5073080;28;20055;-66
2022/09/28 05:52:37;;;;;;;12.00;9.57;;;8.90;99.90;;;;;;5073640;28;20056;-66
2022/09/28 05:55:06;;;;;;;11.30;8.90;;;8.90;99.90;;;;;;5073861;28;20405;-66
2022/09/28 05:57:32;;;;;;;12.63;9.60;;;8.80;99.90;;;;;;5073591;28;20757;-66
2022/09/28 05:59:58;;;;;;;13.90;9.83;;;8.90;99.90;;;;;;5074122;28;20291;-66
2022/09/28 06:02:24;;;;;;;12.13;9.47;;;8.90;99.90;;;;;;5073765;28;20052;-66
2022/09/28 06:04:50;;;;;;;11.90;8.93;;;8.90;99.90;;;;;;5073115;28;20557;-66
2022/09/28 06:07:16;;;;;;;13.00;9.27;;;8.90;99.90;;;;;;5073769;28;20327;-66
2022/09/28 06:09:42;;;;;;;10.73;8.87;;;8.80;99.90;;;;;;5073434;28;20037;-66
2022/09/28 06:12:08;;;;;;;10.37;8.30;;;8.90;99.90;;;;;;5073621;28;20275;-66
2022/09/28 06:14:34;;;;;;;13.37;8.80;;;8.90;99.90;;;;;;5073340;28;20052;-66
2022/09/28 06:16:59;;;;;;;11.17;8.93;;;8.90;99.90;;;;;;5073749;28;20052;-66
2022/09/28 06:19:25;;;;;;;13.17;9.67;;;8.90;99.90;;;;;;5055576;28;20391;-66
2022/09/28 06:21:51;;;;;;;11.80;9.10;;;8.90;99.90;;;;;;5072928;28;20049;-66
2022/09/28 06:24:16;;;;;;;9.73;8.63;;;8.90;99.90;;;;;;5055872;28;20059;-66
2022/09/28 06:26:42;;;;;;;9.97;8.67;;;8.90;99.90;;;;;;5073144;28;20037;-66
2022/09/28 06:29:08;;;;;;;11.53;9.73;;;8.90;99.90;;;;;;5073398;28;20045;-66
2022/09/28 06:31:34;;;;;;;11.80;8.83;;;8.90;99.90;;;;;;5072935;28;20044;-66
2022/09/28 06:34:00;;;;;;;15.23;8.13;;;8.90;99.90;;;;;;5055324;28;20036;-66
2022/09/28 06:36:30;;;;;;;10.87;8.90;;;8.90;99.90;;;;;;5073197;28;20052;-66
2022/09/28 06:38:56;;;;;;;12.43;9.90;;;8.90;99.90;;;;;;5072880;28;20356;-66
2022/09/28 06:41:22;;;;;;;12.83;10.47;;;8.90;99.90;;;;;;5073204;28;20661;-66
2022/09/28 06:43:48;;;;;;;12.37;10.57;;;8.80;99.90;;;;;;5072855;28;20354;-66
2022/09/28 06:46:14;;;;;;;13.47;10.53;;;8.90;99.90;;;;;;5055636;28;20441;-66
2022/09/28 06:48:39;;;;;;;14.37;11.40;;;8.90;99.90;;;;;;5038722;28;20059;-66
2022/09/28 06:51:06;;;;;;;15.87;11.93;;;9.00;99.90;;;;;;5073201;28;20047;-66
2022/09/28 06:53:31;;;;;;;14.17;12.17;;;9.00;99.90;;;;;;5073184;28;20045;-66
2022/09/28 06:55:57;;;;;;;14.00;11.57;;;9.00;99.90;;;;;;5072699;28;20281;-66
2022/09/28 06:58:27;;;;;;;14.57;11.57;;;9.10;99.90;;;;;;5072953;28;20403;-66
2022/09/28 07:00:58;;;;;;;13.57;10.87;;;9.10;99.90;;;;;;5072317;28;20507;-66
2022/09/28 07:03:24;;;;;;;12.70;10.70;;;9.20;99.90;;;;;;5073003;28;20804;-66
2022/09/28 07:05:52;;;;;;;11.57;9.63;;;9.60;99.90;;;;;;5072590;28;20348;-66
2022/09/28 07:08:21;;;;;;;10.83;8.33;;;10.50;99.90;;;;;;5055100;28;20278;-66
2022/09/28 07:10:57;;;;;;;8.87;6.93;;;12.40;99.90;;;;;;5072661;28;20278;-67
2022/09/28 07:13:24;;;;;;;7.77;6.77;;;12.90;99.90;;;;;;5073005;28;20267;-67
2022/09/28 07:15:54;;;;;;;7.43;5.90;;;14.00;99.90;;;;;;5072562;28;20290;-67
2022/09/28 07:18:22;;;;;;;8.10;5.93;;;14.80;99.90;;;;;;5073092;28;20358;-68
2022/09/28 07:20:48;;;;;;;8.60;6.10;;;;;;;;;;5072539;28;20377;-68
2022/09/28 07:23:15;;;;;;;7.43;6.20;;;;;;;;;;5055000;28;20286;-68
2022/09/28 07:25:44;;;;;;;7.30;6.50;;;;;;;;;;5072642;28;20619;-69
2022/09/28 07:28:10;;;;;;;8.93;6.27;;;13.80;99.90;;;;;;5072820;28;20293;-67
2022/09/28 07:30:36;;;;;;;7.33;6.53;;;13.50;99.90;;;;;;5072898;28;20314;-68
2022/09/28 07:33:05;;;;;;;8.77;6.53;;;13.10;99.90;;;;;;5038219;28;20339;-66
2022/09/28 07:35:33;;;;;;;9.73;7.00;;;;;;;;;;5072727;28;20366;-68
2022/09/28 07:38:03;;;;;;;8.33;7.23;;;;;;;;;;5054931;28;20306;-67
2022/09/28 07:43:19;;;;;;;8.35;6.05;;;;;;;;;;5072893;28;20267;-67
2022/09/28 07:45:46;;;;;;;9.37;6.80;;;12.40;99.90;;;;;;5072380;28;20095;-67
2022/09/28 07:48:15;;;;;;;8.87;7.07;;;12.40;99.90;;;;;;5072508;28;20838;-66
2022/09/28 07:50:46;;;;;;;8.33;6.87;;;12.40;99.90;;;;;;5072199;28;20278;-66
2022/09/28 07:53:12;;;;;;;8.57;6.50;;;12.30;99.90;;;;;;5072537;28;20269;-66
2022/09/28 07:55:37;;;;;;;9.50;6.70;;;12.30;99.90;;;;;;5072365;28;20353;-66
2022/09/28 07:58:03;;;;;;;8.40;6.00;;;12.30;99.90;;;;;;5072261;28;20052;-66
2022/09/28 08:00:31;;;;;;;7.90;5.80;;;12.40;99.90;;;;;;5072495;28;20037;-67
2022/09/28 08:03:03;;;;;;;8.40;6.00;;;12.40;99.90;;;;;;5072126;28;20080;-66
2022/09/28 08:05:34;;;;;;;6.73;5.13;;;12.40;99.90;;;;;;5072319;28;20770;-66
2022/09/28 08:08:01;;;;;;;7.97;4.97;;;12.30;99.90;;;;;;5071988;28;20279;-66
2022/09/28 08:10:27;;;;;;;10.40;5.03;;;12.30;99.90;;;;;;5072176;28;20263;-66
2022/09/28 08:12:54;;;;;;;7.67;5.17;;;12.30;99.90;;;;;;5073185;28;20298;-67
2022/09/28 08:15:20;;;;;;;6.23;4.53;;;12.30;99.90;;;;;;5075594;28;20048;-67
2022/09/28 08:17:46;;;;;;;7.37;4.57;;;12.30;99.90;;;;;;5075726;28;20627;-67
2022/09/28 08:23:06;;;;;;;9.13;4.57;;;12.30;99.90;;;;;;5074891;28;20350;-66
2022/09/28 08:25:31;;;;;;;7.22;4.75;;;12.30;99.90;;;;;;5075709;28;20274;-70
2022/09/28 08:27:57;;;;;;;8.33;4.47;;;12.20;99.90;;;;;;5041117;28;20044;-70
2022/09/28 08:30:23;;;;;;;8.00;4.00;;;12.20;99.90;;;;;;5075556;28;20047;-67
2022/09/28 08:32:49;;;;;;;10.90;3.73;;;12.20;99.90;;;;;;5057691;28;20059;-67
2022/09/28 08:35:14;;;;;;;8.20;3.37;;;12.20;99.90;;;;;;5058116;28;20460;-66
2022/09/28 08:37:40;;;;;;;6.37;3.60;;;12.10;99.90;;;;;;5057646;28;20044;-67
2022/09/28 08:40:17;;;;;;;7.77;3.37;;;12.20;99.90;;;;;;5075264;28;20491;-67
2022/09/28 08:42:44;;;;;;;10.20;3.80;;;12.10;99.90;;;;;;5075652;28;20048;-67
2022/09/28 08:45:14;;;;;;;5.47;3.17;;;12.10;99.90;;;;;;5075140;28;20285;-68
2022/09/28 08:50:53;;;;;;;7.73;3.10;;;12.10;99.90;;;;;;5075354;28;20275;-68
2022/09/28 08:53:41;;;;;;;5.97;3.03;;;12.10;99.90;;;;;;5075249;28;20298;-68
2022/09/28 08:56:14;;;;;;;8.43;2.80;;;12.10;99.90;;;;;;5074817;28;20762;-68
2022/09/28 08:58:44;;;;;;;7.07;2.87;;;12.10;99.90;;;;;;5075289;28;20271;-67
2022/09/28 09:01:15;;;;;;;4.53;2.13;;;12.10;99.90;;;;;;5075337;28;20340;-67
2022/09/28 09:03:44;;;;;;;5.57;2.43;;;12.10;99.90;;;;;;5057549;28;20290;-68
2022/09/28 09:06:40;;;;;;;6.87;2.83;;;12.10;99.90;;;;;;5074635;28;20286;-68
2022/09/28 09:09:29;;;;;;;6.43;2.83;;;12.20;99.90;;;;;;5040267;28;20295;-71
2022/09/28 09:12:08;;;;;;;6.60;2.20;;;12.20;99.90;;;;;;5056962;28;20385;-71
2022/09/28 09:14:45;;;;;;;5.43;1.40;;;12.20;99.90;;;;;;5040523;28;20377;-71
2022/09/28 09:17:19;;;;;;;6.37;1.43;;;12.20;99.90;;;;;;5074533;28;20541;-71
2022/09/28 09:20:07;;;;;;;2.75;1.00;;;12.20;99.90;;;;;;5056801;28;20305;-71
2022/09/28 09:22:54;;;;;;;4.30;1.10;;;12.10;99.90;;;;;;5074939;28;20060;-72
2022/09/28 09:25:41;;;;;;;2.37;1.00;;;12.20;99.90;;;;;;5074575;28;20739;-70
2022/09/28 09:28:50;;;;;;;4.07;1.23;;;12.20;99.90;;;;;;5074393;28;20374;-69
2022/09/28 09:32:05;;;;;;;1.20;0.57;;;12.20;99.90;;;;;;4957342;28;20882;-71
2022/09/28 09:34:58;;;;;;;3.53;0.63;;;12.20;99.90;;;;;;5002368;28;20665;-70
2022/09/28 09:37:48;;;;;;;2.30;0.80;;;12.20;99.90;;;;;;5074755;28;20279;-71
2022/09/28 09:40:47;;;;;;;4.10;0.67;;;12.30;99.90;;;;;;5056199;28;20302;-70
2022/09/28 09:43:24;;;;;;;4.03;0.70;;;12.30;99.90;;;;;;5074077;28;20306;-70
2022/09/28 09:46:03;;;;;;;2.47;0.70;;;12.30;99.90;;;;;;5074286;28;20279;-70
2022/09/28 09:48:37;;;;;;;2.67;0.70;;;12.40;99.90;;;;;;5074349;28;20275;-69
2022/09/28 09:51:19;;;;;;;1.63;0.60;;;12.40;99.90;;;;;;5074069;28;20322;-71
2022/09/28 09:53:58;;;;;;;2.13;0.60;;;12.40;99.90;;;;;;5053846;28;20311;-69
2022/09/28 09:56:27;;;;;;;1.53;0.50;;;12.40;99.90;;;;;;5073267;28;20876;-70
2022/09/28 09:58:58;;;;;;;4.30;0.80;;;12.50;99.90;;;;;;5073466;28;20282;-69
2022/09/28 10:01:37;;;;;;;4.20;0.77;;;12.50;99.90;;;;;;5073755;28;20282;-71
2022/09/28 10:04:11;;;;;;;2.70;0.50;;;12.60;99.90;;;;;;5073799;28;20286;-71
2022/09/28 10:06:40;;;;;;;1.87;0.57;;;12.70;99.90;;;;;;5074224;28;20271;-71
2022/09/28 10:09:14;;;;;;;2.70;0.50;;;12.70;99.90;;;;;;5073565;28;20283;-72
2022/09/28 10:11:47;;;;;;;2.90;0.68;;;12.80;99.90;;;;;;5073827;28;20279;-71
2022/09/28 10:14:16;;;;;;;6.90;0.70;;;12.90;99.90;;;;;;5073277;28;20139;-76
2022/09/28 10:16:45;;;;;;;2.60;0.60;;;13.00;99.90;;;;;;5044191;28;20292;-69
2022/09/28 10:19:12;;;;;;;1.07;0.50;;;13.10;99.90;;;;;;5053304;28;20298;-75
2022/09/28 10:21:39;;;;;;;2.80;0.73;;;13.10;99.90;;;;;;5036199;28;20283;-74
2022/09/28 10:24:21;;;;;;;2.23;0.87;;;13.20;99.90;;;;;;5053023;28;20299;-69
2022/09/28 10:26:53;;;;;;;2.13;0.83;;;13.20;99.90;;;;;;5053673;28;20286;-68
2022/09/28 10:29:24;;;;;;;3.80;0.70;;;13.40;99.90;;;;;;5053293;28;20351;-69
2022/09/28 10:31:54;;;;;;;1.30;0.50;;;13.50;99.90;;;;;;5053707;28;20280;-68
2022/09/28 10:34:28;;;;;;;1.93;0.70;;;13.60;99.90;;;;;;5053255;28;20276;-68
2022/09/28 10:37:12;;;;;;;1.57;0.60;;;13.60;99.90;;;;;;5053135;28;20299;-68
2022/09/28 10:39:52;;;;;;;1.37;0.60;;;13.80;99.90;;;;;;5053587;28;20643;-69
2022/09/28 10:42:28;;;;;;;1.70;0.60;;;13.90;99.90;;;;;;5053041;28;20370;-71
2022/09/28 10:44:59;;;;;;;3.17;0.53;;;13.90;99.90;;;;;;5052977;28;20279;-69
2022/09/28 10:47:28;;;;;;;2.03;0.60;;;14.00;99.90;;;;;;5052633;28;20280;-69
2022/09/28 10:49:54;;;;;;;2.07;0.80;;;14.10;99.90;;;;;;5053087;28;20283;-68
2022/09/28 10:52:41;;;;;;;1.27;0.60;;;14.30;99.90;;;;;;5035120;28;20283;-68
2022/09/28 10:55:27;;;;;;;2.53;0.60;;;14.40;99.90;;;;;;5035062;28;20279;-66
2022/09/28 10:57:53;;;;;;;3.50;0.80;;;14.40;99.90;;;;;;5035611;28;20382;-67
2022/09/28 11:00:42;;;;;;;1.50;0.60;;;14.40;99.90;;;;;;5052607;28;20302;-68
2022/09/28 11:03:26;;;;;;;1.43;0.90;;;14.40;99.90;;;;;;5052817;28;20369;-68
2022/09/28 11:06:01;;;;;;;1.30;0.60;;;14.40;99.90;;;;;;5053014;28;20288;-67
2022/09/28 11:08:41;;;;;;;0.63;0.52;;;14.50;99.90;;;;;;5052688;28;20048;-66
2022/09/28 11:11:12;;;;;;;1.57;0.60;;;14.50;99.90;;;;;;5052691;28;20067;-68
2022/09/28 11:13:49;;;;;;;1.43;0.70;;;14.60;99.90;;;;;;5052897;28;20321;-66
2022/09/28 11:16:30;;;;;;;1.00;0.50;;;14.60;99.90;;;;;;5060078;28;20295;-71
2022/09/28 11:19:02;;;;;;;4.03;0.70;;;14.50;99.90;;;;;;5063362;28;20279;-68
2022/09/28 11:21:31;;;;;;;2.87;0.60;;;14.50;99.90;;;;;;5047230;28;20290;-66
2022/09/28 11:24:26;;;;;;;1.87;0.83;;;14.60;99.90;;;;;;5043955;28;20791;-68
2022/09/28 11:27:00;;;;;;;2.30;0.60;;;14.50;99.90;;;;;;5042801;28;20318;-70
2022/09/28 11:29:42;;;;;;;2.50;0.70;;;14.40;99.90;;;;;;5056564;28;20317;-68
2022/09/28 11:32:09;;;;;;;2.87;0.77;;;14.40;99.90;;;;;;5062532;28;20732;-71
2022/09/28 11:34:46;;;;;;;5.93;0.97;;;14.40;99.90;;;;;;5066420;28;20361;-71
2022/09/28 11:37:15;;;;;;;1.97;0.70;;;14.50;99.90;;;;;;5044930;28;20419;-70
2022/09/28 11:39:50;;;;;;;2.43;0.50;;;14.50;99.90;;;;;;5065366;28;20295;-69
2022/09/28 11:42:28;;;;;;;2.13;0.70;;;14.60;99.90;;;;;;5064266;28;20279;-68
2022/09/28 11:45:08;;;;;;;2.00;0.80;;;14.60;99.90;;;;;;5064983;28;20294;-68
2022/09/28 11:47:45;;;;;;;1.40;0.77;;;14.50;99.90;;;;;;5065335;28;20691;-69
2022/09/28 11:50:46;;;;;;;3.13;0.67;;;14.50;99.90;;;;;;5065785;28;20489;-70
2022/09/28 11:53:29;;;;;;;2.87;0.90;;;14.40;99.90;;;;;;5068428;28;20341;-69
2022/09/28 11:56:07;;;;;;;3.20;0.90;;;14.30;99.90;;;;;;5047677;28;20299;-68
2022/09/28 11:58:45;;;;;;;1.23;0.60;;;14.20;99.90;;;;;;5047589;28;20045;-69
2022/09/28 12:01:14;;;;;;;0.67;0.60;;;14.10;99.90;;;;;;5069440;28;20299;-68
2022/09/28 12:03:45;;;;;;;0.73;0.50;;;14.10;99.90;;;;;;5070056;28;20872;-67
2022/09/28 12:06:18;;;;;;;1.27;0.63;;;14.00;99.90;;;;;;5065771;28;20387;-69
2022/09/28 12:08:54;;;;;;;0.90;0.60;;;14.00;99.90;;;;;;5051612;28;20370;-67
2022/09/28 12:11:26;;;;;;;0.53;0.50;;;13.90;99.90;;;;;;5072948;28;20282;-67
2022/09/28 12:13:53;;;;;;;1.30;0.50;;;13.90;99.90;;;;;;5066398;28;20275;-69
2022/09/28 12:16:21;;;;;;;1.27;0.67;;;13.90;99.90;;;;;;5064696;28;20291;-69
2022/09/28 12:18:58;;;;;;;1.80;0.60;;;13.80;99.90;;;;;;5068578;28;20321;-68
2022/09/28 12:21:36;;;;;;;1.27;0.60;;;13.80;99.90;;;;;;5069944;28;20290;-68
2022/09/28 12:24:17;;;;;;;2.10;0.60;;;13.90;99.90;;;;;;5065197;28;20275;-68
2022/09/28 12:26:58;;;;;;;1.93;0.70;;;13.90;99.90;;;;;;5050077;28;20290;-67
2022/09/28 12:29:39;;;;;;;4.00;0.70;;;14.00;99.90;;;;;;5056930;28;20390;-67
2022/09/28 12:32:17;;;;;;;1.13;0.60;;;14.00;99.90;;;;;;5065983;28;20368;-67
2022/09/28 12:34:43;;;;;;;3.00;0.70;;;14.00;99.90;;;;;;5070317;28;20291;-67
2022/09/28 12:37:40;;;;;;;4.43;0.90;;;13.90;99.90;;;;;;5049910;28;20844;-67
2022/09/28 12:40:26;;;;;;;2.43;0.90;;;13.90;99.90;;;;;;5069734;28;20040;-66
2022/09/28 12:43:29;;;;;;;4.07;0.87;;;13.80;99.90;;;;;;5070246;28;20315;-67
2022/09/28 12:46:15;;;;;;;2.30;0.60;;;13.80;99.90;;;;;;5067976;28;21098;-67
2022/09/28 12:49:17;;;;;;;2.55;0.70;;;13.80;99.90;;;;;;5051758;28;20646;-67
2022/09/28 12:51:47;;;;;;;3.90;0.70;;;13.80;99.90;;;;;;4985565;28;20056;-69
2022/09/28 12:54:40;;;;;;;1.90;0.70;;;13.80;99.90;;;;;;5052584;28;20616;-68
2022/09/28 12:57:27;;;;;;;1.73;0.70;;;13.80;99.90;;;;;;5067778;28;20755;-67
2022/09/28 12:59:59;;;;;;;3.37;0.80;;;13.80;99.90;;;;;;5069365;28;20364;-67
2022/09/28 13:03:02;;;;;;;3.77;0.80;;;13.90;99.90;;;;;;5069397;28;20884;-67
2022/09/28 13:05:40;;;;;;;1.13;0.70;;;13.90;99.90;;;;;;5067633;28;20282;-68
2022/09/28 13:08:24;;;;;;;4.03;0.70;;;13.90;99.90;;;;;;5069899;28;20282;-68
2022/09/28 13:11:17;;;;;;;1.33;0.70;;;13.90;99.90;;;;;;5069119;28;20275;-68
2022/09/28 13:14:03;;;;;;;2.43;0.63;;;13.80;99.90;;;;;;5069376;28;20354;-67
2022/09/28 13:16:35;;;;;;;3.97;0.70;;;13.80;99.90;;;;;;5066835;28;20628;-69
2022/09/28 13:19:30;;;;;;;1.53;0.80;;;13.80;99.90;;;;;;5069929;28;20420;-68
2022/09/28 13:22:19;;;;;;;1.60;0.65;;;13.80;99.90;;;;;;5069020;28;20270;-68
2022/09/28 13:24:46;;;;;;;5.07;0.70;;;13.90;99.90;;;;;;5068761;28;20048;-67
2022/09/28 13:27:22;;;;;;;1.67;0.70;;;13.90;99.90;;;;;;5067926;28;20775;-68
2022/09/28 13:29:50;;;;;;;0.67;0.60;;;14.00;99.90;;;;;;5067624;28;20283;-68
2022/09/28 13:32:17;;;;;;;1.33;0.60;;;14.00;99.90;;;;;;5069096;28;20754;-67